sensor_id;sensor_type;location;lat;lon;timestamp;pressure;altitude;pressure_sealevel;temperature;humidity
35704;BME280;21820;51.112;13.762;2023-01-28T00:02:23;100195.63;;;22.82;52.00
35704;BME280;21820;51.112;13.762;2023-01-28T00:04:49;100170.47;;;22.70;51.35
35704;BME280;21820;51.112;13.762;2023-01-28T00:07:14;100183.75;;;22.78;51.68
35704;BME280;21820;51.112;13.762;2023-01-28T00:09:39;100187.34;;;22.77;51.60
35704;BME280;21820;51.112;13.762;2023-01-28T00:12:05;100190.53;;;22.80;51.98
35704;BME280;21820;51.112;13.762;2023-01-28T00:14:31;100187.19;;;22.78;52.59
35704;BME280;21820;51.112;13.762;2023-01-28T00:16:56;100202.25;;;22.86;51.82
35704;BME280;21820;51.112;13.762;2023-01-28T00:19:21;100192.47;;;22.88;52.63
35704;BME280;21820;51.112;13.762;2023-01-28T00:21:47;100195.38;;;22.94;53.22
35704;BME280;21820;51.112;13.762;2023-01-28T00:24:12;100199.13;;;22.92;53.98
35704;BME280;21820;51.112;13.762;2023-01-28T00:26:38;100200.06;;;22.91;52.57
35704;BME280;21820;51.112;13.762;2023-01-28T00:29:03;100182.97;;;22.87;53.92
35704;BME280;21820;51.112;13.762;2023-01-28T00:31:29;100200.66;;;23.04;52.81
35704;BME280;21820;51.112;13.762;2023-01-28T00:33:55;100199.97;;;23.02;53.39
35704;BME280;21820;51.112;13.762;2023-01-28T00:36:22;100195.94;;;22.98;53.42
35704;BME280;21820;51.112;13.762;2023-01-28T00:38:54;100201.91;;;23.00;54.50
35704;BME280;21820;51.112;13.762;2023-01-28T00:41:22;100197.09;;;23.05;53.53
35704;BME280;21820;51.112;13.762;2023-01-28T00:43:48;100200.06;;;22.91;51.15
35704;BME280;21820;51.112;13.762;2023-01-28T00:46:14;100204.97;;;22.75;51.70
35704;BME280;21820;51.112;13.762;2023-01-28T00:48:41;100209.97;;;22.78;51.28
35704;BME280;21820;51.112;13.762;2023-01-28T00:51:09;100208.06;;;22.89;50.93
35704;BME280;21820;51.112;13.762;2023-01-28T00:53:35;100203.28;;;23.04;50.31
35704;BME280;21820;51.112;13.762;2023-01-28T00:56:03;100204.31;;;23.22;49.98
35704;BME280;21820;51.112;13.762;2023-01-28T00:58:29;100207.25;;;23.38;49.96
35704;BME280;21820;51.112;13.762;2023-01-28T01:00:55;100193.06;;;23.60;49.54
35704;BME280;21820;51.112;13.762;2023-01-28T01:03:20;100194.97;;;23.67;48.87
35704;BME280;21820;51.112;13.762;2023-01-28T01:05:45;100194.00;;;23.87;48.22
35704;BME280;21820;51.112;13.762;2023-01-28T01:08:11;100190.94;;;23.92;48.62
35704;BME280;21820;51.112;13.762;2023-01-28T01:10:37;100194.25;;;23.94;48.36
35704;BME280;21820;51.112;13.762;2023-01-28T01:13:04;100199.38;;;23.95;48.54
35704;BME280;21820;51.112;13.762;2023-01-28T01:15:30;100200.22;;;23.86;48.34
35704;BME280;21820;51.112;13.762;2023-01-28T01:17:56;100188.63;;;23.79;48.38
35704;BME280;21820;51.112;13.762;2023-01-28T01:20:26;100206.03;;;23.71;48.36
35704;BME280;21820;51.112;13.762;2023-01-28T01:22:53;100202.16;;;23.65;49.11
35704;BME280;21820;51.112;13.762;2023-01-28T01:25:19;100197.75;;;23.56;48.93
35704;BME280;21820;51.112;13.762;2023-01-28T01:27:47;100198.56;;;23.47;49.38
35704;BME280;21820;51.112;13.762;2023-01-28T01:30:14;100208.63;;;23.42;50.08
35704;BME280;21820;51.112;13.762;2023-01-28T01:32:40;100205.16;;;23.32;50.17
35704;BME280;21820;51.112;13.762;2023-01-28T01:35:06;100208.75;;;23.31;50.62
35704;BME280;21820;51.112;13.762;2023-01-28T01:37:35;100208.56;;;23.23;50.13
35704;BME280;21820;51.112;13.762;2023-01-28T01:40:01;100212.00;;;23.14;50.51
35704;BME280;21820;51.112;13.762;2023-01-28T01:42:30;100216.81;;;23.09;50.61
35704;BME280;21820;51.112;13.762;2023-01-28T01:45:05;100213.09;;;23.02;50.87
35704;BME280;21820;51.112;13.762;2023-01-28T01:50:24;100217.75;;;22.89;51.56
35704;BME280;21820;51.112;13.762;2023-01-28T01:52:55;100216.47;;;22.83;51.14
35704;BME280;21820;51.112;13.762;2023-01-28T01:55:23;100213.56;;;22.77;51.89
35704;BME280;21820;51.112;13.762;2023-01-28T01:57:51;100210.50;;;22.72;51.50
35704;BME280;21820;51.112;13.762;2023-01-28T02:00:19;100205.53;;;22.69;51.75
35704;BME280;21820;51.112;13.762;2023-01-28T02:02:47;100207.00;;;22.62;51.69
35704;BME280;21820;51.112;13.762;2023-01-28T02:05:15;100214.88;;;22.62;52.30
35704;BME280;21820;51.112;13.762;2023-01-28T02:07:42;100206.28;;;22.60;52.01
35704;BME280;21820;51.112;13.762;2023-01-28T02:10:09;100199.69;;;22.56;51.90
35704;BME280;21820;51.112;13.762;2023-01-28T02:12:37;100202.63;;;22.51;52.08
35704;BME280;21820;51.112;13.762;2023-01-28T02:15:30;100194.44;;;22.56;54.81
35704;BME280;21820;51.112;13.762;2023-01-28T02:17:55;100195.31;;;22.66;52.90
35704;BME280;21820;51.112;13.762;2023-01-28T02:26:03;100198.38;;;22.71;52.19
35704;BME280;21820;51.112;13.762;2023-01-28T02:28:48;100193.00;;;22.52;52.19
35704;BME280;21820;51.112;13.762;2023-01-28T02:31:22;100201.75;;;22.62;51.99
35704;BME280;21820;51.112;13.762;2023-01-28T02:34:03;100206.63;;;22.76;51.39
35704;BME280;21820;51.112;13.762;2023-01-28T02:36:46;100213.88;;;22.93;51.31
35704;BME280;21820;51.112;13.762;2023-01-28T02:39:18;100196.66;;;23.00;50.44
35704;BME280;21820;51.112;13.762;2023-01-28T02:41:55;100209.19;;;23.27;50.07
35704;BME280;21820;51.112;13.762;2023-01-28T02:44:21;100207.97;;;23.50;49.21
35704;BME280;21820;51.112;13.762;2023-01-28T02:46:46;100211.56;;;23.58;49.15
35704;BME280;21820;51.112;13.762;2023-01-28T02:49:36;100211.00;;;23.74;48.95
35704;BME280;21820;51.112;13.762;2023-01-28T02:52:13;100219.84;;;23.82;49.14
35704;BME280;21820;51.112;13.762;2023-01-28T02:57:37;100210.16;;;23.64;49.40
35704;BME280;21820;51.112;13.762;2023-01-28T03:00:17;100223.16;;;23.65;49.11
35704;BME280;21820;51.112;13.762;2023-01-28T03:05:22;100232.00;;;23.55;49.92
35704;BME280;21820;51.112;13.762;2023-01-28T03:07:50;100218.88;;;23.45;49.36
35704;BME280;21820;51.112;13.762;2023-01-28T03:10:19;100223.13;;;23.37;50.06
35704;BME280;21820;51.112;13.762;2023-01-28T03:12:48;100206.50;;;23.17;49.64
35704;BME280;21820;51.112;13.762;2023-01-28T03:15:38;100201.78;;;23.11;50.46
35704;BME280;21820;51.112;13.762;2023-01-28T03:18:44;100218.34;;;23.02;51.15
35704;BME280;21820;51.112;13.762;2023-01-28T03:21:40;100212.22;;;22.92;50.70
35704;BME280;21820;51.112;13.762;2023-01-28T03:24:30;100229.34;;;22.96;50.64
35704;BME280;21820;51.112;13.762;2023-01-28T03:30:10;100227.81;;;22.84;51.41
35704;BME280;21820;51.112;13.762;2023-01-28T03:32:56;100235.47;;;22.76;51.71
35704;BME280;21820;51.112;13.762;2023-01-28T03:35:41;100244.97;;;22.67;51.88
35704;BME280;21820;51.112;13.762;2023-01-28T03:38:25;100252.53;;;22.61;52.06
35704;BME280;21820;51.112;13.762;2023-01-28T03:41:07;100244.91;;;22.58;52.42
35704;BME280;21820;51.112;13.762;2023-01-28T03:43:33;100230.47;;;22.43;52.31
35704;BME280;21820;51.112;13.762;2023-01-28T03:45:59;100227.16;;;22.41;51.95
35704;BME280;21820;51.112;13.762;2023-01-28T03:48:26;100248.69;;;22.44;52.40
35704;BME280;21820;51.112;13.762;2023-01-28T03:50:54;100249.88;;;22.40;52.66
35704;BME280;21820;51.112;13.762;2023-01-28T03:53:20;100251.00;;;22.38;52.57
35704;BME280;21820;51.112;13.762;2023-01-28T03:55:47;100257.16;;;22.37;52.39
35704;BME280;21820;51.112;13.762;2023-01-28T03:58:14;100257.44;;;22.34;53.16
35704;BME280;21820;51.112;13.762;2023-01-28T04:00:40;100260.22;;;22.42;52.77
35704;BME280;21820;51.112;13.762;2023-01-28T04:03:08;100266.25;;;22.53;52.31
35704;BME280;21820;51.112;13.762;2023-01-28T04:08:22;100266.59;;;22.90;51.52
35704;BME280;21820;51.112;13.762;2023-01-28T04:10:47;100262.25;;;23.09;51.03
35704;BME280;21820;51.112;13.762;2023-01-28T04:13:13;100265.06;;;23.27;49.67
35704;BME280;21820;51.112;13.762;2023-01-28T04:15:38;100269.25;;;23.39;49.91
35704;BME280;21820;51.112;13.762;2023-01-28T04:18:04;100262.38;;;23.57;49.67
35704;BME280;21820;51.112;13.762;2023-01-28T04:20:29;100263.22;;;23.67;48.57
35704;BME280;21820;51.112;13.762;2023-01-28T04:22:55;100272.63;;;23.79;48.76
35704;BME280;21820;51.112;13.762;2023-01-28T04:25:20;100274.84;;;23.74;48.66
35704;BME280;21820;51.112;13.762;2023-01-28T04:27:45;100277.34;;;23.66;49.26
35704;BME280;21820;51.112;13.762;2023-01-28T04:30:11;100267.25;;;23.62;49.59
35704;BME280;21820;51.112;13.762;2023-01-28T04:32:36;100246.91;;;23.45;49.05
35704;BME280;21820;51.112;13.762;2023-01-28T04:35:02;100264.59;;;23.52;49.13
35704;BME280;21820;51.112;13.762;2023-01-28T04:37:27;100259.66;;;23.68;49.23
35704;BME280;21820;51.112;13.762;2023-01-28T04:39:52;100266.88;;;24.04;47.62
35704;BME280;21820;51.112;13.762;2023-01-28T04:42:18;100272.50;;;24.48;47.12
35704;BME280;21820;51.112;13.762;2023-01-28T04:44:43;100269.34;;;24.90;45.51
35704;BME280;21820;51.112;13.762;2023-01-28T04:47:08;100267.09;;;25.22;45.26
35704;BME280;21820;51.112;13.762;2023-01-28T04:49:34;100271.84;;;25.46;44.83
35704;BME280;21820;51.112;13.762;2023-01-28T04:51:59;100271.19;;;25.61;44.14
35704;BME280;21820;51.112;13.762;2023-01-28T04:54:24;100275.72;;;25.69;44.18
35704;BME280;21820;51.112;13.762;2023-01-28T04:56:50;100276.69;;;25.68;44.42
35704;BME280;21820;51.112;13.762;2023-01-28T04:59:15;100289.78;;;25.78;44.13
35704;BME280;21820;51.112;13.762;2023-01-28T05:01:41;100282.28;;;25.83;43.76
35704;BME280;21820;51.112;13.762;2023-01-28T05:04:06;100286.13;;;25.88;43.76
35704;BME280;21820;51.112;13.762;2023-01-28T05:06:32;100291.75;;;25.93;43.66
35704;BME280;21820;51.112;13.762;2023-01-28T05:08:57;100288.50;;;25.99;43.20
35704;BME280;21820;51.112;13.762;2023-01-28T05:11:23;100277.84;;;25.83;44.04
35704;BME280;21820;51.112;13.762;2023-01-28T05:13:49;100305.75;;;25.94;43.54
35704;BME280;21820;51.112;13.762;2023-01-28T05:16:14;100297.38;;;25.98;43.28
35704;BME280;21820;51.112;13.762;2023-01-28T05:18:40;100291.31;;;25.98;44.18
35704;BME280;21820;51.112;13.762;2023-01-28T05:21:05;100275.50;;;25.98;43.45
35704;BME280;21820;51.112;13.762;2023-01-28T05:23:30;100299.06;;;25.99;43.59
35704;BME280;21820;51.112;13.762;2023-01-28T05:25:56;100290.25;;;25.91;43.38
35704;BME280;21820;51.112;13.762;2023-01-28T05:28:21;100316.25;;;26.03;43.45
35704;BME280;21820;51.112;13.762;2023-01-28T05:30:46;100308.06;;;26.06;43.50
35704;BME280;21820;51.112;13.762;2023-01-28T05:33:12;100305.69;;;26.03;43.73
35704;BME280;21820;51.112;13.762;2023-01-28T05:35:37;100308.34;;;26.03;44.06
35704;BME280;21820;51.112;13.762;2023-01-28T05:38:03;100319.88;;;26.02;43.63
35704;BME280;21820;51.112;13.762;2023-01-28T05:40:28;100320.84;;;26.01;43.69
35704;BME280;21820;51.112;13.762;2023-01-28T05:42:54;100317.91;;;26.04;43.63
35704;BME280;21820;51.112;13.762;2023-01-28T05:45:19;100323.25;;;26.12;43.20
35704;BME280;21820;51.112;13.762;2023-01-28T05:47:44;100321.50;;;26.03;43.28
35704;BME280;21820;51.112;13.762;2023-01-28T05:50:12;100324.03;;;26.05;43.55
35704;BME280;21820;51.112;13.762;2023-01-28T05:52:38;100333.72;;;26.04;43.34
35704;BME280;21820;51.112;13.762;2023-01-28T05:55:03;100334.56;;;25.95;43.33
35704;BME280;21820;51.112;13.762;2023-01-28T05:57:29;100342.72;;;25.84;43.71
35704;BME280;21820;51.112;13.762;2023-01-28T05:59:54;100345.72;;;25.72;44.35
35704;BME280;21820;51.112;13.762;2023-01-28T06:02:19;100331.56;;;25.45;44.52
35704;BME280;21820;51.112;13.762;2023-01-28T06:04:45;100343.53;;;25.40;44.78
35704;BME280;21820;51.112;13.762;2023-01-28T06:07:10;100345.03;;;25.33;44.91
35704;BME280;21820;51.112;13.762;2023-01-28T06:09:37;100351.16;;;25.33;45.04
35704;BME280;21820;51.112;13.762;2023-01-28T06:12:03;100355.16;;;25.37;45.50
35704;BME280;21820;51.112;13.762;2023-01-28T06:14:29;100370.38;;;25.34;45.30
35704;BME280;21820;51.112;13.762;2023-01-28T06:16:54;100360.28;;;25.39;45.41
35704;BME280;21820;51.112;13.762;2023-01-28T06:19:20;100370.53;;;25.42;45.01
35704;BME280;21820;51.112;13.762;2023-01-28T06:21:45;100365.38;;;25.50;44.73
35704;BME280;21820;51.112;13.762;2023-01-28T06:24:11;100379.66;;;25.47;45.28
35704;BME280;21820;51.112;13.762;2023-01-28T06:26:36;100378.34;;;25.61;45.18
35704;BME280;21820;51.112;13.762;2023-01-28T06:29:02;100382.38;;;25.55;44.60
35704;BME280;21820;51.112;13.762;2023-01-28T06:31:27;100370.75;;;25.58;44.25
35704;BME280;21820;51.112;13.762;2023-01-28T06:33:52;100393.00;;;25.63;44.82
35704;BME280;21820;51.112;13.762;2023-01-28T06:36:18;100402.44;;;25.66;44.15
35704;BME280;21820;51.112;13.762;2023-01-28T06:38:43;100397.94;;;25.76;43.95
35704;BME280;21820;51.112;13.762;2023-01-28T06:41:08;100407.50;;;25.77;44.11
35704;BME280;21820;51.112;13.762;2023-01-28T06:43:34;100402.63;;;25.82;44.08
35704;BME280;21820;51.112;13.762;2023-01-28T06:45:59;100399.91;;;25.74;44.30
35704;BME280;21820;51.112;13.762;2023-01-28T06:48:25;100407.00;;;25.91;43.70
35704;BME280;21820;51.112;13.762;2023-01-28T06:50:51;100385.69;;;25.85;43.75
35704;BME280;21820;51.112;13.762;2023-01-28T06:53:17;100409.66;;;25.91;43.87
35704;BME280;21820;51.112;13.762;2023-01-28T06:55:42;100408.47;;;25.76;44.55
35704;BME280;21820;51.112;13.762;2023-01-28T06:58:08;100405.75;;;25.68;44.61
35704;BME280;21820;51.112;13.762;2023-01-28T07:00:33;100410.13;;;25.50;45.11
35704;BME280;21820;51.112;13.762;2023-01-28T07:02:58;100422.81;;;25.37;45.12
35704;BME280;21820;51.112;13.762;2023-01-28T07:05:24;100415.56;;;25.39;45.06
35704;BME280;21820;51.112;13.762;2023-01-28T07:07:49;100427.94;;;25.38;45.14
35704;BME280;21820;51.112;13.762;2023-01-28T07:10:15;100423.75;;;25.36;45.68
35704;BME280;21820;51.112;13.762;2023-01-28T07:12:40;100419.88;;;25.40;44.67
35704;BME280;21820;51.112;13.762;2023-01-28T07:15:07;100418.75;;;25.42;45.38
35704;BME280;21820;51.112;13.762;2023-01-28T07:17:35;100418.59;;;25.44;45.37
35704;BME280;21820;51.112;13.762;2023-01-28T07:20:00;100420.53;;;25.51;45.21
35704;BME280;21820;51.112;13.762;2023-01-28T07:22:25;100403.88;;;25.51;44.56
35704;BME280;21820;51.112;13.762;2023-01-28T07:24:51;100427.72;;;25.49;44.21
35704;BME280;21820;51.112;13.762;2023-01-28T07:27:16;100401.22;;;25.14;40.20
35704;BME280;21820;51.112;13.762;2023-01-28T07:29:41;100428.44;;;25.32;41.33
35704;BME280;21820;51.112;13.762;2023-01-28T07:32:07;100429.91;;;25.54;42.01
35704;BME280;21820;51.112;13.762;2023-01-28T07:34:32;100427.38;;;25.62;41.78
35704;BME280;21820;51.112;13.762;2023-01-28T07:36:58;100430.97;;;25.70;42.00
35704;BME280;21820;51.112;13.762;2023-01-28T07:39:23;100430.25;;;25.78;42.44
35704;BME280;21820;51.112;13.762;2023-01-28T07:41:49;100428.38;;;25.88;42.60
35704;BME280;21820;51.112;13.762;2023-01-28T07:44:14;100426.72;;;25.87;42.84
35704;BME280;21820;51.112;13.762;2023-01-28T07:46:39;100426.72;;;25.87;42.92
35704;BME280;21820;51.112;13.762;2023-01-28T07:49:05;100426.66;;;25.97;42.69
35704;BME280;21820;51.112;13.762;2023-01-28T07:51:30;100422.91;;;25.99;42.70
35704;BME280;21820;51.112;13.762;2023-01-28T07:53:56;100423.13;;;25.88;42.51
35704;BME280;21820;51.112;13.762;2023-01-28T07:56:21;100437.00;;;25.81;42.82
35704;BME280;21820;51.112;13.762;2023-01-28T07:58:49;100437.38;;;25.68;43.74
35704;BME280;21820;51.112;13.762;2023-01-28T08:01:15;100426.34;;;25.45;43.90
35704;BME280;21820;51.112;13.762;2023-01-28T08:03:40;100442.44;;;25.42;44.45
35704;BME280;21820;51.112;13.762;2023-01-28T08:06:05;100424.88;;;25.24;44.66
35704;BME280;21820;51.112;13.762;2023-01-28T08:08:31;100438.97;;;25.32;44.33
35704;BME280;21820;51.112;13.762;2023-01-28T08:10:56;100448.84;;;25.40;44.54
35704;BME280;21820;51.112;13.762;2023-01-28T08:13:21;100443.28;;;25.43;44.70
35704;BME280;21820;51.112;13.762;2023-01-28T08:15:47;100443.97;;;25.45;43.95
35704;BME280;21820;51.112;13.762;2023-01-28T08:18:14;100415.31;;;25.42;44.30
35704;BME280;21820;51.112;13.762;2023-01-28T08:20:41;100442.41;;;25.52;44.14
35704;BME280;21820;51.112;13.762;2023-01-28T08:23:13;100446.50;;;25.64;44.08
35704;BME280;21820;51.112;13.762;2023-01-28T08:25:39;100437.66;;;25.65;43.59
35704;BME280;21820;51.112;13.762;2023-01-28T08:28:06;100439.69;;;25.71;43.80
35704;BME280;21820;51.112;13.762;2023-01-28T08:30:32;100438.41;;;25.75;43.66
35704;BME280;21820;51.112;13.762;2023-01-28T08:32:58;100438.16;;;25.78;44.02
35704;BME280;21820;51.112;13.762;2023-01-28T08:35:25;100450.88;;;25.83;43.76
35704;BME280;21820;51.112;13.762;2023-01-28T08:37:51;100447.50;;;25.90;43.22
35704;BME280;21820;51.112;13.762;2023-01-28T08:40:16;100447.78;;;25.87;43.13
35704;BME280;21820;51.112;13.762;2023-01-28T08:42:52;100452.75;;;25.90;42.97
35704;BME280;21820;51.112;13.762;2023-01-28T08:45:20;100449.47;;;25.88;41.64
35704;BME280;21820;51.112;13.762;2023-01-28T08:48:00;100452.63;;;25.92;42.18
35704;BME280;21820;51.112;13.762;2023-01-28T08:50:28;100453.59;;;25.91;41.78
35704;BME280;21820;51.112;13.762;2023-01-28T08:52:55;100454.97;;;25.95;42.73
35704;BME280;21820;51.112;13.762;2023-01-28T08:55:21;100455.16;;;25.84;42.62
35704;BME280;21820;51.112;13.762;2023-01-28T08:57:47;100461.47;;;25.73;42.58
35704;BME280;21820;51.112;13.762;2023-01-28T09:00:12;100463.69;;;25.68;43.53
35704;BME280;21820;51.112;13.762;2023-01-28T09:02:38;100454.09;;;25.40;43.15
35704;BME280;21820;51.112;13.762;2023-01-28T09:05:04;100476.22;;;25.47;43.41
35704;BME280;21820;51.112;13.762;2023-01-28T09:07:31;100478.34;;;25.43;44.00
35704;BME280;21820;51.112;13.762;2023-01-28T09:09:56;100479.84;;;25.46;44.17
35704;BME280;21820;51.112;13.762;2023-01-28T09:12:22;100483.47;;;25.45;43.74
35704;BME280;21820;51.112;13.762;2023-01-28T09:14:47;100482.88;;;25.51;43.82
35704;BME280;21820;51.112;13.762;2023-01-28T09:17:13;100459.06;;;25.43;43.69
35704;BME280;21820;51.112;13.762;2023-01-28T09:19:38;100480.59;;;25.65;43.60
35704;BME280;21820;51.112;13.762;2023-01-28T09:22:04;100483.25;;;25.65;43.37
35704;BME280;21820;51.112;13.762;2023-01-28T09:24:29;100480.84;;;25.72;42.78
35704;BME280;21820;51.112;13.762;2023-01-28T09:26:55;100478.06;;;25.73;43.04
35704;BME280;21820;51.112;13.762;2023-01-28T09:29:20;100489.16;;;25.77;43.18
35704;BME280;21820;51.112;13.762;2023-01-28T09:31:46;100490.59;;;25.62;43.63
35704;BME280;21820;51.112;13.762;2023-01-28T09:34:11;100496.34;;;25.48;43.95
35704;BME280;21820;51.112;13.762;2023-01-28T09:36:36;100492.19;;;25.45;43.78
35704;BME280;21820;51.112;13.762;2023-01-28T09:39:02;100490.56;;;25.25;43.82
35704;BME280;21820;51.112;13.762;2023-01-28T09:41:43;100492.09;;;25.18;44.59
35704;BME280;21820;51.112;13.762;2023-01-28T09:44:33;100492.34;;;25.25;44.39
35704;BME280;21820;51.112;13.762;2023-01-28T09:47:04;100494.28;;;25.23;44.18
35704;BME280;21820;51.112;13.762;2023-01-28T09:49:46;100498.44;;;25.25;44.27
35704;BME280;21820;51.112;13.762;2023-01-28T09:52:15;100492.19;;;25.26;43.78
35704;BME280;21820;51.112;13.762;2023-01-28T09:54:48;100502.44;;;25.39;43.86
35704;BME280;21820;51.112;13.762;2023-01-28T09:57:24;100498.28;;;25.46;43.56
35704;BME280;21820;51.112;13.762;2023-01-28T09:59:50;100497.03;;;25.50;44.00
35704;BME280;21820;51.112;13.762;2023-01-28T10:10:47;100506.00;;;25.66;44.23
35704;BME280;21820;51.112;13.762;2023-01-28T10:13:45;100508.06;;;25.63;44.21
35704;BME280;21820;51.112;13.762;2023-01-28T10:21:11;100501.19;;;25.33;43.43
35704;BME280;21820;51.112;13.762;2023-01-28T10:23:45;100503.28;;;25.30;44.22
35704;BME280;21820;51.112;13.762;2023-01-28T10:26:22;100511.47;;;25.27;44.77
35704;BME280;21820;51.112;13.762;2023-01-28T10:28:52;100516.88;;;25.25;44.88
35704;BME280;21820;51.112;13.762;2023-01-28T10:31:20;100518.66;;;25.25;44.89
35704;BME280;21820;51.112;13.762;2023-01-28T10:33:46;100523.94;;;25.25;44.76
35704;BME280;21820;51.112;13.762;2023-01-28T10:36:11;100507.72;;;25.20;44.46
35704;BME280;21820;51.112;13.762;2023-01-28T10:38:37;100535.56;;;25.32;44.79
35704;BME280;21820;51.112;13.762;2023-01-28T10:41:03;100516.88;;;25.35;44.46
35704;BME280;21820;51.112;13.762;2023-01-28T10:43:31;100526.13;;;25.39;44.05
35704;BME280;21820;51.112;13.762;2023-01-28T10:46:02;100524.19;;;25.41;44.12
35704;BME280;21820;51.112;13.762;2023-01-28T10:48:32;100533.91;;;25.50;44.72
35704;BME280;21820;51.112;13.762;2023-01-28T10:51:01;100530.00;;;25.54;43.82
35704;BME280;21820;51.112;13.762;2023-01-28T10:53:41;100528.34;;;25.53;44.24
35704;BME280;21820;51.112;13.762;2023-01-28T10:56:16;100534.72;;;25.60;43.75
35704;BME280;21820;51.112;13.762;2023-01-28T10:59:21;100537.44;;;25.68;44.06
35704;BME280;21820;51.112;13.762;2023-01-28T11:01:48;100539.94;;;25.69;43.32
35704;BME280;21820;51.112;13.762;2023-01-28T11:04:23;100531.59;;;25.74;43.58
35704;BME280;21820;51.112;13.762;2023-01-28T11:07:00;100532.28;;;25.76;43.70
35704;BME280;21820;51.112;13.762;2023-01-28T11:11:51;100524.69;;;25.73;42.85
35704;BME280;21820;51.112;13.762;2023-01-28T11:14:23;100529.75;;;25.84;42.95
35704;BME280;21820;51.112;13.762;2023-01-28T11:16:51;100520.22;;;25.83;43.04
35704;BME280;21820;51.112;13.762;2023-01-28T11:19:19;100525.03;;;25.88;43.06
35704;BME280;21820;51.112;13.762;2023-01-28T11:21:51;100501.91;;;25.82;42.74
35704;BME280;21820;51.112;13.762;2023-01-28T11:24:21;100522.66;;;25.94;43.08
35704;BME280;21820;51.112;13.762;2023-01-28T11:26:50;100498.53;;;25.89;42.75
35704;BME280;21820;51.112;13.762;2023-01-28T11:29:38;100515.44;;;25.96;42.87
35704;BME280;21820;51.112;13.762;2023-01-28T11:32:04;100524.19;;;25.87;42.47
35704;BME280;21820;51.112;13.762;2023-01-28T11:34:33;100523.00;;;25.82;40.87
35704;BME280;21820;51.112;13.762;2023-01-28T11:37:09;100521.66;;;25.95;41.09
35704;BME280;21820;51.112;13.762;2023-01-28T11:39:36;100505.22;;;25.84;41.98
35704;BME280;21820;51.112;13.762;2023-01-28T11:42:18;100503.13;;;25.87;42.05
35704;BME280;21820;51.112;13.762;2023-01-28T11:44:44;100500.84;;;25.75;43.09
35704;BME280;21820;51.112;13.762;2023-01-28T11:50:04;100500.06;;;25.55;43.74
35704;BME280;21820;51.112;13.762;2023-01-28T12:00:40;100493.13;;;25.54;44.38
35704;BME280;21820;51.112;13.762;2023-01-28T12:05:52;100493.63;;;25.67;44.28
35704;BME280;21820;51.112;13.762;2023-01-28T12:08:28;100500.69;;;25.76;44.26
35704;BME280;21820;51.112;13.762;2023-01-28T12:14:06;100484.13;;;25.84;44.14
35704;BME280;21820;51.112;13.762;2023-01-28T12:19:34;100486.78;;;25.84;43.61
35704;BME280;21820;51.112;13.762;2023-01-28T12:28:06;100487.69;;;26.02;42.76
35704;BME280;21820;51.112;13.762;2023-01-28T12:30:58;100492.53;;;26.06;43.72
35704;BME280;21820;51.112;13.762;2023-01-28T12:36:42;100481.25;;;26.14;42.79
35704;BME280;21820;51.112;13.762;2023-01-28T12:42:11;100470.47;;;26.07;43.86
35704;BME280;21820;51.112;13.762;2023-01-28T12:44:53;100474.34;;;26.03;43.88
35704;BME280;21820;51.112;13.762;2023-01-28T12:47:26;100472.75;;;25.93;44.28
35704;BME280;21820;51.112;13.762;2023-01-28T12:49:57;100470.56;;;25.79;43.89
35704;BME280;21820;51.112;13.762;2023-01-28T12:52:29;100462.91;;;25.58;44.31
35704;BME280;21820;51.112;13.762;2023-01-28T12:55:14;100476.78;;;25.60;44.94
35704;BME280;21820;51.112;13.762;2023-01-28T12:57:42;100478.81;;;25.66;44.80
35704;BME280;21820;51.112;13.762;2023-01-28T13:03:10;100477.28;;;25.63;45.12
35704;BME280;21820;51.112;13.762;2023-01-28T13:05:43;100473.94;;;25.71;45.12
35704;BME280;21820;51.112;13.762;2023-01-28T13:08:24;100472.53;;;25.77;44.58
35704;BME280;21820;51.112;13.762;2023-01-28T13:10:50;100473.59;;;25.84;44.65
35704;BME280;21820;51.112;13.762;2023-01-28T13:13:36;100466.94;;;25.89;44.04
35704;BME280;21820;51.112;13.762;2023-01-28T13:16:03;100466.63;;;25.92;44.67
35704;BME280;21820;51.112;13.762;2023-01-28T13:20:54;100475.75;;;25.98;44.77
35704;BME280;21820;51.112;13.762;2023-01-28T13:23:26;100474.91;;;25.97;43.88
35704;BME280;21820;51.112;13.762;2023-01-28T13:28:48;100472.66;;;26.12;44.39
35704;BME280;21820;51.112;13.762;2023-01-28T13:31:16;100477.13;;;26.11;44.05
35704;BME280;21820;51.112;13.762;2023-01-28T13:33:45;100452.19;;;25.96;44.06
35704;BME280;21820;51.112;13.762;2023-01-28T13:38:37;100465.97;;;26.17;44.31
35704;BME280;21820;51.112;13.762;2023-01-28T13:41:05;100484.50;;;26.25;44.36
35704;BME280;21820;51.112;13.762;2023-01-28T13:45:59;100481.78;;;26.17;43.65
35704;BME280;21820;51.112;13.762;2023-01-28T13:48:30;100474.63;;;26.00;44.18
35704;BME280;21820;51.112;13.762;2023-01-28T13:50:56;100483.66;;;25.98;44.26
35704;BME280;21820;51.112;13.762;2023-01-28T13:53:43;100492.94;;;25.75;44.84
35704;BME280;21820;51.112;13.762;2023-01-28T13:56:24;100497.41;;;25.64;44.94
35704;BME280;21820;51.112;13.762;2023-01-28T13:59:34;100508.06;;;25.63;46.03
35704;BME280;21820;51.112;13.762;2023-01-28T14:02:09;100486.16;;;25.62;45.65
35704;BME280;21820;51.112;13.762;2023-01-28T14:04:45;100500.13;;;25.73;45.59
35704;BME280;21820;51.112;13.762;2023-01-28T14:07:24;100501.22;;;25.80;45.12
35704;BME280;21820;51.112;13.762;2023-01-28T14:13:19;100519.03;;;25.95;44.91
35704;BME280;21820;51.112;13.762;2023-01-28T14:15:51;100519.31;;;25.92;45.14